sensor_id;sensor_type;location;lat;lon;timestamp;P1;durP1;ratioP1;P2;durP2;ratioP2
18505;SDS011;9382;53.242;10.438;2022-12-18T00:00:42;33.50;;;17.00;;
18505;SDS011;9382;53.242;10.438;2022-12-18T00:03:11;39.47;;;18.13;;
18505;SDS011;9382;53.242;10.438;2022-12-18T00:05:46;31.33;;;17.50;;
18505;SDS011;9382;53.242;10.438;2022-12-18T00:08:14;36.90;;;18.93;;
18505;SDS011;9382;53.242;10.438;2022-12-18T00:10:42;35.50;;;18.23;;
18505;SDS011;9382;53.242;10.438;2022-12-18T00:13:09;44.07;;;19.00;;
18505;SDS011;9382;53.242;10.438;2022-12-18T00:15:36;38.67;;;18.53;;
18505;SDS011;9382;53.242;10.438;2022-12-18T00:18:05;37.47;;;18.17;;
18505;SDS011;9382;53.242;10.438;2022-12-18T00:20:35;38.33;;;18.63;;
18505;SDS011;9382;53.242;10.438;2022-12-18T00:23:04;35.70;;;18.57;;
18505;SDS011;9382;53.242;10.438;2022-12-18T00:25:32;34.27;;;18.27;;
18505;SDS011;9382;53.242;10.438;2022-12-18T00:28:00;35.07;;;17.77;;
18505;SDS011;9382;53.242;10.438;2022-12-18T00:30:27;34.80;;;18.40;;
18505;SDS011;9382;53.242;10.438;2022-12-18T00:32:54;37.13;;;19.13;;
18505;SDS011;9382;53.242;10.438;2022-12-18T00:35:21;33.67;;;18.30;;
18505;SDS011;9382;53.242;10.438;2022-12-18T00:37:48;37.73;;;18.33;;
18505;SDS011;9382;53.242;10.438;2022-12-18T00:40:16;37.73;;;18.30;;
18505;SDS011;9382;53.242;10.438;2022-12-18T00:42:43;39.00;;;17.77;;
18505;SDS011;9382;53.242;10.438;2022-12-18T00:45:21;35.00;;;17.63;;
18505;SDS011;9382;53.242;10.438;2022-12-18T00:47:48;40.00;;;18.73;;
18505;SDS011;9382;53.242;10.438;2022-12-18T00:50:15;37.87;;;18.67;;
18505;SDS011;9382;53.242;10.438;2022-12-18T00:52:41;39.13;;;18.23;;
18505;SDS011;9382;53.242;10.438;2022-12-18T00:55:08;40.77;;;19.27;;
18505;SDS011;9382;53.242;10.438;2022-12-18T00:57:37;37.37;;;18.60;;
18505;SDS011;9382;53.242;10.438;2022-12-18T01:00:05;36.60;;;16.93;;
18505;SDS011;9382;53.242;10.438;2022-12-18T01:02:34;38.23;;;17.40;;
18505;SDS011;9382;53.242;10.438;2022-12-18T01:05:01;36.60;;;17.90;;
18505;SDS011;9382;53.242;10.438;2022-12-18T01:07:28;41.40;;;18.90;;
18505;SDS011;9382;53.242;10.438;2022-12-18T01:09:55;35.03;;;18.17;;
18505;SDS011;9382;53.242;10.438;2022-12-18T01:12:22;35.00;;;17.87;;
18505;SDS011;9382;53.242;10.438;2022-12-18T01:14:50;40.17;;;18.47;;
18505;SDS011;9382;53.242;10.438;2022-12-18T01:17:17;37.07;;;17.50;;
18505;SDS011;9382;53.242;10.438;2022-12-18T01:19:44;39.27;;;17.03;;
18505;SDS011;9382;53.242;10.438;2022-12-18T01:22:11;34.03;;;17.87;;
18505;SDS011;9382;53.242;10.438;2022-12-18T01:24:38;35.60;;;17.07;;
18505;SDS011;9382;53.242;10.438;2022-12-18T01:27:05;38.07;;;19.00;;
18505;SDS011;9382;53.242;10.438;2022-12-18T01:29:31;35.83;;;18.13;;
18505;SDS011;9382;53.242;10.438;2022-12-18T01:32:00;40.13;;;18.60;;
18505;SDS011;9382;53.242;10.438;2022-12-18T01:34:26;36.10;;;18.73;;
18505;SDS011;9382;53.242;10.438;2022-12-18T01:36:53;44.37;;;19.77;;
18505;SDS011;9382;53.242;10.438;2022-12-18T01:39:20;37.80;;;18.37;;
18505;SDS011;9382;53.242;10.438;2022-12-18T01:41:47;43.00;;;18.97;;
18505;SDS011;9382;53.242;10.438;2022-12-18T01:47:39;41.63;;;19.27;;
18505;SDS011;9382;53.242;10.438;2022-12-18T01:50:10;40.17;;;18.27;;
18505;SDS011;9382;53.242;10.438;2022-12-18T01:52:40;39.87;;;20.00;;
18505;SDS011;9382;53.242;10.438;2022-12-18T01:55:08;40.37;;;20.07;;
18505;SDS011;9382;53.242;10.438;2022-12-18T01:57:36;42.10;;;18.67;;
18505;SDS011;9382;53.242;10.438;2022-12-18T02:00:06;41.40;;;19.47;;
18505;SDS011;9382;53.242;10.438;2022-12-18T02:02:35;38.43;;;19.00;;
18505;SDS011;9382;53.242;10.438;2022-12-18T02:05:04;42.27;;;19.70;;
18505;SDS011;9382;53.242;10.438;2022-12-18T02:07:36;40.23;;;19.40;;
18505;SDS011;9382;53.242;10.438;2022-12-18T02:10:10;44.57;;;20.97;;
18505;SDS011;9382;53.242;10.438;2022-12-18T02:12:48;41.57;;;19.57;;
18505;SDS011;9382;53.242;10.438;2022-12-18T02:15:21;49.60;;;20.13;;
18505;SDS011;9382;53.242;10.438;2022-12-18T02:17:54;44.97;;;18.97;;
18505;SDS011;9382;53.242;10.438;2022-12-18T02:20:27;41.90;;;19.53;;
18505;SDS011;9382;53.242;10.438;2022-12-18T02:23:04;44.37;;;20.73;;
18505;SDS011;9382;53.242;10.438;2022-12-18T02:25:43;44.70;;;19.43;;
18505;SDS011;9382;53.242;10.438;2022-12-18T02:28:40;42.67;;;19.73;;
18505;SDS011;9382;53.242;10.438;2022-12-18T02:31:11;43.40;;;19.27;;
18505;SDS011;9382;53.242;10.438;2022-12-18T02:33:42;45.83;;;20.80;;
18505;SDS011;9382;53.242;10.438;2022-12-18T02:36:10;44.53;;;21.23;;
18505;SDS011;9382;53.242;10.438;2022-12-18T02:38:41;45.27;;;21.23;;
18505;SDS011;9382;53.242;10.438;2022-12-18T02:41:11;44.27;;;20.60;;
18505;SDS011;9382;53.242;10.438;2022-12-18T02:43:40;50.90;;;21.00;;
18505;SDS011;9382;53.242;10.438;2022-12-18T02:46:24;47.00;;;21.60;;
18505;SDS011;9382;53.242;10.438;2022-12-18T02:48:54;42.43;;;20.53;;
18505;SDS011;9382;53.242;10.438;2022-12-18T02:51:28;43.47;;;20.13;;
18505;SDS011;9382;53.242;10.438;2022-12-18T02:54:00;43.47;;;21.03;;
18505;SDS011;9382;53.242;10.438;2022-12-18T02:56:37;41.07;;;20.47;;
18505;SDS011;9382;53.242;10.438;2022-12-18T02:59:11;42.50;;;20.80;;
18505;SDS011;9382;53.242;10.438;2022-12-18T03:01:42;41.70;;;20.90;;
18505;SDS011;9382;53.242;10.438;2022-12-18T03:04:16;42.37;;;20.07;;
18505;SDS011;9382;53.242;10.438;2022-12-18T03:06:48;48.30;;;21.03;;
18505;SDS011;9382;53.242;10.438;2022-12-18T03:09:17;46.73;;;21.00;;
18505;SDS011;9382;53.242;10.438;2022-12-18T03:11:50;46.40;;;21.47;;
18505;SDS011;9382;53.242;10.438;2022-12-18T03:14:39;49.73;;;20.93;;
18505;SDS011;9382;53.242;10.438;2022-12-18T03:17:11;47.53;;;20.93;;
18505;SDS011;9382;53.242;10.438;2022-12-18T03:19:41;46.27;;;20.57;;
18505;SDS011;9382;53.242;10.438;2022-12-18T03:22:10;43.13;;;19.93;;
18505;SDS011;9382;53.242;10.438;2022-12-18T03:24:37;40.97;;;19.90;;
18505;SDS011;9382;53.242;10.438;2022-12-18T03:27:06;48.53;;;22.43;;
18505;SDS011;9382;53.242;10.438;2022-12-18T03:29:38;44.57;;;19.67;;
18505;SDS011;9382;53.242;10.438;2022-12-18T03:32:09;41.93;;;19.90;;
18505;SDS011;9382;53.242;10.438;2022-12-18T03:34:38;47.43;;;20.63;;
18505;SDS011;9382;53.242;10.438;2022-12-18T03:37:08;39.77;;;19.73;;
18505;SDS011;9382;53.242;10.438;2022-12-18T03:39:35;43.80;;;20.27;;
18505;SDS011;9382;53.242;10.438;2022-12-18T03:42:05;44.37;;;19.63;;
18505;SDS011;9382;53.242;10.438;2022-12-18T03:44:39;43.63;;;20.23;;
18505;SDS011;9382;53.242;10.438;2022-12-18T03:47:12;46.27;;;20.50;;
18505;SDS011;9382;53.242;10.438;2022-12-18T03:49:43;44.23;;;19.23;;
18505;SDS011;9382;53.242;10.438;2022-12-18T03:52:15;41.63;;;19.30;;
18505;SDS011;9382;53.242;10.438;2022-12-18T03:54:44;45.23;;;20.53;;
18505;SDS011;9382;53.242;10.438;2022-12-18T03:57:14;45.33;;;20.57;;
18505;SDS011;9382;53.242;10.438;2022-12-18T03:59:44;47.47;;;21.13;;
18505;SDS011;9382;53.242;10.438;2022-12-18T04:02:15;46.90;;;20.70;;
18505;SDS011;9382;53.242;10.438;2022-12-18T04:04:43;43.70;;;20.70;;
18505;SDS011;9382;53.242;10.438;2022-12-18T04:07:12;50.70;;;21.13;;
18505;SDS011;9382;53.242;10.438;2022-12-18T04:09:40;48.07;;;20.30;;
18505;SDS011;9382;53.242;10.438;2022-12-18T04:12:09;43.50;;;19.63;;
18505;SDS011;9382;53.242;10.438;2022-12-18T04:14:38;52.47;;;21.47;;
18505;SDS011;9382;53.242;10.438;2022-12-18T04:17:04;47.97;;;21.70;;
18505;SDS011;9382;53.242;10.438;2022-12-18T04:19:31;46.07;;;20.97;;
18505;SDS011;9382;53.242;10.438;2022-12-18T04:21:58;49.63;;;21.30;;
18505;SDS011;9382;53.242;10.438;2022-12-18T04:24:25;50.03;;;21.40;;
18505;SDS011;9382;53.242;10.438;2022-12-18T04:26:52;46.03;;;20.87;;
18505;SDS011;9382;53.242;10.438;2022-12-18T04:29:20;49.50;;;21.47;;
18505;SDS011;9382;53.242;10.438;2022-12-18T04:31:48;50.97;;;20.87;;
18505;SDS011;9382;53.242;10.438;2022-12-18T04:34:15;49.83;;;21.17;;
18505;SDS011;9382;53.242;10.438;2022-12-18T04:36:42;51.80;;;21.77;;
18505;SDS011;9382;53.242;10.438;2022-12-18T04:39:08;48.07;;;19.53;;
18505;SDS011;9382;53.242;10.438;2022-12-18T04:41:35;46.00;;;19.53;;
18505;SDS011;9382;53.242;10.438;2022-12-18T04:44:02;47.63;;;20.43;;
18505;SDS011;9382;53.242;10.438;2022-12-18T04:46:30;50.73;;;20.93;;
18505;SDS011;9382;53.242;10.438;2022-12-18T04:48:58;50.40;;;20.97;;
18505;SDS011;9382;53.242;10.438;2022-12-18T04:51:25;49.17;;;19.30;;
18505;SDS011;9382;53.242;10.438;2022-12-18T04:53:52;48.30;;;20.57;;
18505;SDS011;9382;53.242;10.438;2022-12-18T04:56:19;43.87;;;20.97;;
18505;SDS011;9382;53.242;10.438;2022-12-18T04:58:46;45.67;;;19.83;;
18505;SDS011;9382;53.242;10.438;2022-12-18T05:01:15;48.17;;;20.80;;
18505;SDS011;9382;53.242;10.438;2022-12-18T05:03:43;51.03;;;21.03;;
18505;SDS011;9382;53.242;10.438;2022-12-18T05:06:11;46.07;;;20.10;;
18505;SDS011;9382;53.242;10.438;2022-12-18T05:08:38;46.93;;;19.80;;
18505;SDS011;9382;53.242;10.438;2022-12-18T05:11:06;49.20;;;20.60;;
18505;SDS011;9382;53.242;10.438;2022-12-18T05:13:34;46.93;;;20.07;;
18505;SDS011;9382;53.242;10.438;2022-12-18T05:16:02;48.50;;;20.13;;
18505;SDS011;9382;53.242;10.438;2022-12-18T05:18:30;47.13;;;19.10;;
18505;SDS011;9382;53.242;10.438;2022-12-18T05:20:57;49.23;;;20.83;;
18505;SDS011;9382;53.242;10.438;2022-12-18T05:23:26;50.77;;;20.50;;
18505;SDS011;9382;53.242;10.438;2022-12-18T05:25:53;47.10;;;19.70;;
18505;SDS011;9382;53.242;10.438;2022-12-18T05:28:22;48.27;;;20.47;;
18505;SDS011;9382;53.242;10.438;2022-12-18T05:30:50;47.93;;;20.70;;
18505;SDS011;9382;53.242;10.438;2022-12-18T05:33:17;49.20;;;20.67;;
18505;SDS011;9382;53.242;10.438;2022-12-18T05:35:49;43.47;;;19.00;;
18505;SDS011;9382;53.242;10.438;2022-12-18T05:38:16;48.70;;;20.10;;
18505;SDS011;9382;53.242;10.438;2022-12-18T05:40:44;47.43;;;20.33;;
18505;SDS011;9382;53.242;10.438;2022-12-18T05:43:11;43.23;;;19.13;;
18505;SDS011;9382;53.242;10.438;2022-12-18T05:45:38;50.57;;;18.80;;
18505;SDS011;9382;53.242;10.438;2022-12-18T05:48:06;46.67;;;18.87;;
18505;SDS011;9382;53.242;10.438;2022-12-18T05:50:33;48.30;;;20.33;;
18505;SDS011;9382;53.242;10.438;2022-12-18T05:53:00;49.20;;;20.07;;
18505;SDS011;9382;53.242;10.438;2022-12-18T05:55:27;46.37;;;19.63;;
18505;SDS011;9382;53.242;10.438;2022-12-18T05:57:56;50.07;;;20.57;;
18505;SDS011;9382;53.242;10.438;2022-12-18T06:00:22;45.73;;;19.23;;
18505;SDS011;9382;53.242;10.438;2022-12-18T06:02:49;48.97;;;20.27;;
18505;SDS011;9382;53.242;10.438;2022-12-18T06:05:16;55.47;;;20.30;;
18505;SDS011;9382;53.242;10.438;2022-12-18T06:07:43;46.23;;;19.47;;
18505;SDS011;9382;53.242;10.438;2022-12-18T06:10:10;45.73;;;18.57;;
18505;SDS011;9382;53.242;10.438;2022-12-18T06:12:37;49.77;;;20.30;;
18505;SDS011;9382;53.242;10.438;2022-12-18T06:15:06;49.40;;;20.20;;
18505;SDS011;9382;53.242;10.438;2022-12-18T06:17:33;45.13;;;19.43;;
18505;SDS011;9382;53.242;10.438;2022-12-18T06:20:01;46.47;;;19.03;;
18505;SDS011;9382;53.242;10.438;2022-12-18T06:22:28;48.33;;;19.53;;
18505;SDS011;9382;53.242;10.438;2022-12-18T06:24:56;50.07;;;19.63;;
18505;SDS011;9382;53.242;10.438;2022-12-18T06:27:24;46.27;;;18.77;;
18505;SDS011;9382;53.242;10.438;2022-12-18T06:29:51;47.27;;;18.47;;
18505;SDS011;9382;53.242;10.438;2022-12-18T06:32:19;50.27;;;19.20;;
18505;SDS011;9382;53.242;10.438;2022-12-18T06:34:46;49.73;;;20.07;;
18505;SDS011;9382;53.242;10.438;2022-12-18T06:37:13;49.53;;;19.07;;
18505;SDS011;9382;53.242;10.438;2022-12-18T06:39:40;57.30;;;20.53;;
18505;SDS011;9382;53.242;10.438;2022-12-18T06:42:06;47.17;;;19.80;;
18505;SDS011;9382;53.242;10.438;2022-12-18T06:44:33;48.97;;;19.90;;
18505;SDS011;9382;53.242;10.438;2022-12-18T06:47:00;50.73;;;19.43;;
18505;SDS011;9382;53.242;10.438;2022-12-18T06:49:28;50.43;;;18.93;;
18505;SDS011;9382;53.242;10.438;2022-12-18T06:51:55;46.83;;;18.43;;
18505;SDS011;9382;53.242;10.438;2022-12-18T06:54:22;52.23;;;19.60;;
18505;SDS011;9382;53.242;10.438;2022-12-18T06:56:49;51.10;;;18.93;;
18505;SDS011;9382;53.242;10.438;2022-12-18T06:59:16;49.00;;;20.00;;
18505;SDS011;9382;53.242;10.438;2022-12-18T07:01:42;50.13;;;20.63;;
18505;SDS011;9382;53.242;10.438;2022-12-18T07:04:09;47.60;;;19.33;;
18505;SDS011;9382;53.242;10.438;2022-12-18T07:06:38;49.43;;;19.70;;
18505;SDS011;9382;53.242;10.438;2022-12-18T07:09:04;49.03;;;19.23;;
18505;SDS011;9382;53.242;10.438;2022-12-18T07:11:32;50.63;;;19.97;;
18505;SDS011;9382;53.242;10.438;2022-12-18T07:13:59;47.33;;;19.30;;
18505;SDS011;9382;53.242;10.438;2022-12-18T07:16:26;46.63;;;19.43;;
18505;SDS011;9382;53.242;10.438;2022-12-18T07:18:54;49.93;;;19.70;;
18505;SDS011;9382;53.242;10.438;2022-12-18T07:21:22;50.97;;;20.37;;
18505;SDS011;9382;53.242;10.438;2022-12-18T07:23:51;47.17;;;19.10;;
18505;SDS011;9382;53.242;10.438;2022-12-18T07:26:19;46.17;;;18.93;;
18505;SDS011;9382;53.242;10.438;2022-12-18T07:28:47;51.97;;;20.07;;
18505;SDS011;9382;53.242;10.438;2022-12-18T07:31:15;48.63;;;19.23;;
18505;SDS011;9382;53.242;10.438;2022-12-18T07:33:43;50.40;;;19.90;;
18505;SDS011;9382;53.242;10.438;2022-12-18T07:36:10;54.10;;;20.50;;
18505;SDS011;9382;53.242;10.438;2022-12-18T07:38:38;47.27;;;18.50;;
18505;SDS011;9382;53.242;10.438;2022-12-18T07:41:07;47.53;;;20.03;;
18505;SDS011;9382;53.242;10.438;2022-12-18T07:43:35;54.73;;;20.93;;
18505;SDS011;9382;53.242;10.438;2022-12-18T07:46:02;45.87;;;18.47;;
18505;SDS011;9382;53.242;10.438;2022-12-18T07:48:29;40.13;;;17.50;;
18505;SDS011;9382;53.242;10.438;2022-12-18T07:50:57;49.03;;;19.47;;
18505;SDS011;9382;53.242;10.438;2022-12-18T07:53:24;46.03;;;18.93;;
18505;SDS011;9382;53.242;10.438;2022-12-18T07:55:54;47.60;;;17.90;;
18505;SDS011;9382;53.242;10.438;2022-12-18T07:58:23;51.47;;;19.00;;
18505;SDS011;9382;53.242;10.438;2022-12-18T08:00:50;49.50;;;19.90;;
18505;SDS011;9382;53.242;10.438;2022-12-18T08:03:18;42.30;;;18.43;;
18505;SDS011;9382;53.242;10.438;2022-12-18T08:05:45;46.13;;;18.93;;
18505;SDS011;9382;53.242;10.438;2022-12-18T08:08:12;45.37;;;18.10;;
18505;SDS011;9382;53.242;10.438;2022-12-18T08:10:39;50.43;;;20.00;;
18505;SDS011;9382;53.242;10.438;2022-12-18T08:13:06;47.50;;;18.87;;
18505;SDS011;9382;53.242;10.438;2022-12-18T08:15:34;48.07;;;19.33;;
18505;SDS011;9382;53.242;10.438;2022-12-18T08:18:00;44.93;;;18.90;;
18505;SDS011;9382;53.242;10.438;2022-12-18T08:20:27;45.33;;;17.90;;
18505;SDS011;9382;53.242;10.438;2022-12-18T08:22:54;47.27;;;19.23;;
18505;SDS011;9382;53.242;10.438;2022-12-18T08:25:23;46.57;;;18.87;;
18505;SDS011;9382;53.242;10.438;2022-12-18T08:27:49;47.70;;;19.50;;
18505;SDS011;9382;53.242;10.438;2022-12-18T08:30:16;43.17;;;17.60;;
18505;SDS011;9382;53.242;10.438;2022-12-18T08:32:45;45.80;;;18.33;;
18505;SDS011;9382;53.242;10.438;2022-12-18T08:35:12;43.80;;;18.83;;
18505;SDS011;9382;53.242;10.438;2022-12-18T08:37:38;42.57;;;18.33;;
18505;SDS011;9382;53.242;10.438;2022-12-18T08:40:06;47.57;;;18.20;;
18505;SDS011;9382;53.242;10.438;2022-12-18T08:42:34;48.00;;;19.93;;
18505;SDS011;9382;53.242;10.438;2022-12-18T08:45:18;46.77;;;18.67;;
18505;SDS011;9382;53.242;10.438;2022-12-18T08:47:46;48.37;;;19.20;;
18505;SDS011;9382;53.242;10.438;2022-12-18T08:50:13;43.53;;;18.27;;
18505;SDS011;9382;53.242;10.438;2022-12-18T08:52:40;52.50;;;21.00;;
18505;SDS011;9382;53.242;10.438;2022-12-18T08:55:08;41.07;;;18.73;;
18505;SDS011;9382;53.242;10.438;2022-12-18T08:57:35;47.73;;;19.97;;
18505;SDS011;9382;53.242;10.438;2022-12-18T09:00:02;49.67;;;20.10;;
18505;SDS011;9382;53.242;10.438;2022-12-18T09:02:30;48.50;;;19.67;;
18505;SDS011;9382;53.242;10.438;2022-12-18T09:04:58;47.33;;;19.13;;
18505;SDS011;9382;53.242;10.438;2022-12-18T09:07:25;49.70;;;19.27;;
18505;SDS011;9382;53.242;10.438;2022-12-18T09:09:52;46.93;;;18.93;;
18505;SDS011;9382;53.242;10.438;2022-12-18T09:12:19;44.30;;;19.37;;
18505;SDS011;9382;53.242;10.438;2022-12-18T09:14:46;50.27;;;18.90;;
18505;SDS011;9382;53.242;10.438;2022-12-18T09:17:13;42.73;;;18.17;;
18505;SDS011;9382;53.242;10.438;2022-12-18T09:19:40;44.10;;;19.63;;
18505;SDS011;9382;53.242;10.438;2022-12-18T09:22:08;42.80;;;18.50;;
18505;SDS011;9382;53.242;10.438;2022-12-18T09:24:35;41.93;;;18.53;;
18505;SDS011;9382;53.242;10.438;2022-12-18T09:27:02;46.07;;;19.23;;
18505;SDS011;9382;53.242;10.438;2022-12-18T09:29:29;45.30;;;19.30;;
18505;SDS011;9382;53.242;10.438;2022-12-18T09:31:56;46.63;;;18.73;;
18505;SDS011;9382;53.242;10.438;2022-12-18T09:34:23;43.77;;;19.07;;
18505;SDS011;9382;53.242;10.438;2022-12-18T09:36:50;43.13;;;18.67;;
18505;SDS011;9382;53.242;10.438;2022-12-18T09:39:19;45.07;;;18.97;;
18505;SDS011;9382;53.242;10.438;2022-12-18T09:41:46;42.93;;;18.83;;
18505;SDS011;9382;53.242;10.438;2022-12-18T09:44:20;39.10;;;18.23;;
18505;SDS011;9382;53.242;10.438;2022-12-18T09:47:07;43.80;;;18.13;;
18505;SDS011;9382;53.242;10.438;2022-12-18T09:49:39;39.83;;;17.87;;
18505;SDS011;9382;53.242;10.438;2022-12-18T09:52:09;42.20;;;18.67;;
18505;SDS011;9382;53.242;10.438;2022-12-18T09:54:42;42.70;;;18.33;;
18505;SDS011;9382;53.242;10.438;2022-12-18T09:57:13;42.10;;;17.93;;
18505;SDS011;9382;53.242;10.438;2022-12-18T09:59:42;39.03;;;18.20;;
18505;SDS011;9382;53.242;10.438;2022-12-18T10:02:16;43.60;;;19.00;;
18505;SDS011;9382;53.242;10.438;2022-12-18T10:04:48;36.43;;;18.20;;
18505;SDS011;9382;53.242;10.438;2022-12-18T10:07:28;41.87;;;18.73;;
18505;SDS011;9382;53.242;10.438;2022-12-18T10:10:06;42.43;;;19.40;;
18505;SDS011;9382;53.242;10.438;2022-12-18T10:12:41;37.47;;;18.03;;
18505;SDS011;9382;53.242;10.438;2022-12-18T10:15:13;35.97;;;18.30;;
18505;SDS011;9382;53.242;10.438;2022-12-18T10:17:47;38.07;;;17.93;;
18505;SDS011;9382;53.242;10.438;2022-12-18T10:20:24;38.17;;;17.87;;
18505;SDS011;9382;53.242;10.438;2022-12-18T10:22:59;38.20;;;17.10;;
18505;SDS011;9382;53.242;10.438;2022-12-18T10:25:34;37.33;;;17.63;;
18505;SDS011;9382;53.242;10.438;2022-12-18T10:28:17;38.40;;;18.40;;
18505;SDS011;9382;53.242;10.438;2022-12-18T10:30:46;41.17;;;18.23;;
18505;SDS011;9382;53.242;10.438;2022-12-18T10:33:13;38.97;;;17.27;;
18505;SDS011;9382;53.242;10.438;2022-12-18T10:35:42;35.57;;;16.90;;
18505;SDS011;9382;53.242;10.438;2022-12-18T10:38:20;39.60;;;18.13;;
18505;SDS011;9382;53.242;10.438;2022-12-18T10:40:51;37.37;;;17.63;;
18505;SDS011;9382;53.242;10.438;2022-12-18T10:43:20;40.37;;;18.63;;
18505;SDS011;9382;53.242;10.438;2022-12-18T10:46:00;38.43;;;18.17;;
18505;SDS011;9382;53.242;10.438;2022-12-18T10:48:28;35.73;;;17.90;;
18505;SDS011;9382;53.242;10.438;2022-12-18T10:50:57;37.83;;;17.57;;
18505;SDS011;9382;53.242;10.438;2022-12-18T10:53:24;39.10;;;18.37;;
18505;SDS011;9382;53.242;10.438;2022-12-18T10:55:55;35.67;;;17.43;;
18505;SDS011;9382;53.242;10.438;2022-12-18T10:58:25;39.20;;;17.90;;
18505;SDS011;9382;53.242;10.438;2022-12-18T11:01:01;36.53;;;17.67;;
18505;SDS011;9382;53.242;10.438;2022-12-18T11:03:32;38.13;;;18.30;;
18505;SDS011;9382;53.242;10.438;2022-12-18T11:06:02;39.37;;;18.00;;
18505;SDS011;9382;53.242;10.438;2022-12-18T11:08:31;37.93;;;18.97;;
18505;SDS011;9382;53.242;10.438;2022-12-18T11:10:59;33.83;;;17.83;;
18505;SDS011;9382;53.242;10.438;2022-12-18T11:13:26;35.67;;;17.77;;
18505;SDS011;9382;53.242;10.438;2022-12-18T11:15:55;34.57;;;17.10;;
18505;SDS011;9382;53.242;10.438;2022-12-18T11:18:25;35.13;;;17.90;;
18505;SDS011;9382;53.242;10.438;2022-12-18T11:20:54;35.40;;;17.43;;
18505;SDS011;9382;53.242;10.438;2022-12-18T11:23:23;33.17;;;16.87;;
18505;SDS011;9382;53.242;10.438;2022-12-18T11:25:51;37.93;;;18.33;;
18505;SDS011;9382;53.242;10.438;2022-12-18T11:28:36;35.43;;;17.97;;
18505;SDS011;9382;53.242;10.438;2022-12-18T11:31:18;36.27;;;17.67;;
18505;SDS011;9382;53.242;10.438;2022-12-18T11:33:57;36.23;;;17.70;;
18505;SDS011;9382;53.242;10.438;2022-12-18T11:36:28;35.90;;;18.33;;
18505;SDS011;9382;53.242;10.438;2022-12-18T11:38:59;35.40;;;17.90;;
18505;SDS011;9382;53.242;10.438;2022-12-18T11:41:32;35.43;;;17.93;;
18505;SDS011;9382;53.242;10.438;2022-12-18T11:44:24;36.10;;;18.10;;
18505;SDS011;9382;53.242;10.438;2022-12-18T11:46:55;39.63;;;18.33;;
18505;SDS011;9382;53.242;10.438;2022-12-18T11:49:27;31.97;;;17.80;;
18505;SDS011;9382;53.242;10.438;2022-12-18T11:51:59;33.50;;;18.23;;
18505;SDS011;9382;53.242;10.438;2022-12-18T11:54:29;35.40;;;18.10;;
18505;SDS011;9382;53.242;10.438;2022-12-18T11:56:58;33.97;;;17.57;;
18505;SDS011;9382;53.242;10.438;2022-12-18T11:59:35;33.73;;;17.80;;
18505;SDS011;9382;53.242;10.438;2022-12-18T12:02:15;33.53;;;17.63;;
18505;SDS011;9382;53.242;10.438;2022-12-18T12:05:01;35.10;;;17.67;;
18505;SDS011;9382;53.242;10.438;2022-12-18T12:07:39;31.37;;;16.07;;
18505;SDS011;9382;53.242;10.438;2022-12-18T12:10:16;36.60;;;17.43;;
18505;SDS011;9382;53.242;10.438;2022-12-18T12:12:59;30.70;;;16.67;;
18505;SDS011;9382;53.242;10.438;2022-12-18T12:15:42;35.40;;;17.53;;
18505;SDS011;9382;53.242;10.438;2022-12-18T12:18:21;39.23;;;18.73;;
18505;SDS011;9382;53.242;10.438;2022-12-18T12:20:57;34.20;;;17.07;;
18505;SDS011;9382;53.242;10.438;2022-12-18T12:23:34;33.67;;;16.57;;
18505;SDS011;9382;53.242;10.438;2022-12-18T12:26:09;34.37;;;16.80;;
18505;SDS011;9382;53.242;10.438;2022-12-18T12:28:47;38.93;;;17.50;;
18505;SDS011;9382;53.242;10.438;2022-12-18T12:31:31;34.93;;;17.93;;
18505;SDS011;9382;53.242;10.438;2022-12-18T12:34:11;36.23;;;17.40;;
18505;SDS011;9382;53.242;10.438;2022-12-18T12:36:46;34.63;;;18.00;;
18505;SDS011;9382;53.242;10.438;2022-12-18T12:39:27;36.63;;;18.17;;
18505;SDS011;9382;53.242;10.438;2022-12-18T12:41:57;37.37;;;18.17;;
18505;SDS011;9382;53.242;10.438;2022-12-18T12:44:43;41.77;;;18.70;;
18505;SDS011;9382;53.242;10.438;2022-12-18T12:47:19;37.63;;;19.80;;
18505;SDS011;9382;53.242;10.438;2022-12-18T12:49:50;39.87;;;19.57;;
18505;SDS011;9382;53.242;10.438;2022-12-18T12:52:18;42.37;;;21.13;;
18505;SDS011;9382;53.242;10.438;2022-12-18T12:54:50;42.37;;;19.97;;
18505;SDS011;9382;53.242;10.438;2022-12-18T12:57:19;44.33;;;20.80;;
18505;SDS011;9382;53.242;10.438;2022-12-18T12:59:50;46.43;;;20.63;;
18505;SDS011;9382;53.242;10.438;2022-12-18T13:02:27;42.63;;;20.00;;
18505;SDS011;9382;53.242;10.438;2022-12-18T13:05:00;43.80;;;20.83;;
18505;SDS011;9382;53.242;10.438;2022-12-18T13:07:32;44.63;;;20.57;;
18505;SDS011;9382;53.242;10.438;2022-12-18T13:12:51;47.00;;;20.57;;
18505;SDS011;9382;53.242;10.438;2022-12-18T13:15:22;41.27;;;19.60;;
18505;SDS011;9382;53.242;10.438;2022-12-18T13:18:03;44.87;;;20.67;;
18505;SDS011;9382;53.242;10.438;2022-12-18T13:20:43;43.50;;;20.20;;
18505;SDS011;9382;53.242;10.438;2022-12-18T13:28:58;49.13;;;22.07;;
18505;SDS011;9382;53.242;10.438;2022-12-18T13:34:34;47.00;;;20.10;;
18505;SDS011;9382;53.242;10.438;2022-12-18T13:43:26;46.93;;;20.53;;
18505;SDS011;9382;53.242;10.438;2022-12-18T13:45:59;45.07;;;20.83;;
18505;SDS011;9382;53.242;10.438;2022-12-18T13:48:29;46.50;;;21.13;;
18505;SDS011;9382;53.242;10.438;2022-12-18T13:51:00;48.30;;;21.60;;
18505;SDS011;9382;53.242;10.438;2022-12-18T13:53:31;48.77;;;21.77;;
18505;SDS011;9382;53.242;10.438;2022-12-18T13:56:01;52.27;;;21.70;;
18505;SDS011;9382;53.242;10.438;2022-12-18T13:58:29;48.33;;;21.23;;
18505;SDS011;9382;53.242;10.438;2022-12-18T14:00:57;53.43;;;21.33;;
18505;SDS011;9382;53.242;10.438;2022-12-18T14:03:27;49.53;;;20.43;;
18505;SDS011;9382;53.242;10.438;2022-12-18T14:05:56;48.63;;;21.97;;
18505;SDS011;9382;53.242;10.438;2022-12-18T14:08:32;46.63;;;21.30;;
18505;SDS011;9382;53.242;10.438;2022-12-18T14:11:01;52.57;;;21.87;;
18505;SDS011;9382;53.242;10.438;2022-12-18T14:13:32;50.57;;;22.40;;
18505;SDS011;9382;53.242;10.438;2022-12-18T14:16:01;52.53;;;22.03;;
18505;SDS011;9382;53.242;10.438;2022-12-18T14:18:33;53.30;;;20.93;;
18505;SDS011;9382;53.242;10.438;2022-12-18T14:21:06;51.57;;;21.30;;
18505;SDS011;9382;53.242;10.438;2022-12-18T14:23:41;52.07;;;20.73;;
18505;SDS011;9382;53.242;10.438;2022-12-18T14:26:19;52.57;;;20.67;;
18505;SDS011;9382;53.242;10.438;2022-12-18T14:28:48;49.03;;;21.17;;
18505;SDS011;9382;53.242;10.438;2022-12-18T14:31:18;52.20;;;21.53;;
18505;SDS011;9382;53.242;10.438;2022-12-18T14:33:45;53.87;;;21.70;;
18505;SDS011;9382;53.242;10.438;2022-12-18T14:36:16;50.03;;;20.10;;
18505;SDS011;9382;53.242;10.438;2022-12-18T14:38:47;46.10;;;19.40;;
18505;SDS011;9382;53.242;10.438;2022-12-18T14:41:16;54.13;;;20.70;;
18505;SDS011;9382;53.242;10.438;2022-12-18T14:43:45;52.47;;;20.60;;
18505;SDS011;9382;53.242;10.438;2022-12-18T14:46:26;53.67;;;19.93;;
18505;SDS011;9382;53.242;10.438;2022-12-18T14:48:56;49.87;;;19.40;;
18505;SDS011;9382;53.242;10.438;2022-12-18T14:51:27;46.37;;;18.33;;
18505;SDS011;9382;53.242;10.438;2022-12-18T14:53:56;44.90;;;18.87;;
18505;SDS011;9382;53.242;10.438;2022-12-18T14:56:26;46.53;;;18.60;;
18505;SDS011;9382;53.242;10.438;2022-12-18T14:58:55;50.33;;;19.37;;